< < Back
Terminal Aerodrome Forecast


Current Version              Previous Versions:   1  2  3  4  5  6  7  8  9  

Terminal Aerodrome Forecast

408
FTUS44 KBMX 232300
TAFANB
TAF
KANB 232327Z 2400/2424 VRB02KT P6SM SCT250
     FM241800 33006KT P6SM SKC=



Latest METAR

582
SAUS70 KWBC 242100 RRH
MTRANB
METAR KANB 242053Z AUTO 36008KT 10SM CLR 23/02 A3003 RMK AO2 SLP167
T02330022 55007


USA.gov is the U.S. government's official web portal to all federal, state and local government web resources and services.